Time;durP1;ratioP1;P1;durP2;ratioP2;P2;SDS_P1;SDS_P2;PMS_P1;PMS_P2;Temp;Humidity;BMP_temperature;BMP_pressure;BME280_temperature;BME280_humidity;BME280_pressure;Samples;Min_cycle;Max_cycle;Signal;HPM_P1;HPM_P2
2023/11/20 00:00:46;;;;;;;18.27;9.57;;;;;;;3.21;100.00;93018.03;5070989;28;20055;-77
2023/11/20 00:03:13;;;;;;;18.27;9.48;;;;;;;3.21;100.00;93012.19;5070519;28;20506;-77
2023/11/20 00:05:41;;;;;;;16.67;9.02;;;;;;;3.24;100.00;93008.50;5069802;28;20063;-77
2023/11/20 00:08:08;;;;;;;12.75;7.78;;;;;;;3.28;100.00;93009.75;5072020;28;20139;-77
2023/11/20 00:10:38;;;;;;;15.35;8.52;;;;;;;3.30;100.00;93013.72;5070027;28;20528;-77
2023/11/20 00:13:06;;;;;;;10.95;6.45;;;;;;;3.30;100.00;93021.31;5070629;28;20049;-77
2023/11/20 00:15:33;;;;;;;12.60;7.18;;;;;;;3.20;100.00;93000.44;5073970;28;20045;-77
2023/11/20 00:18:00;;;;;;;12.35;6.82;;;;;;;3.37;100.00;93013.03;5069477;28;20045;-77
2023/11/20 00:20:27;;;;;;;11.38;5.80;;;;;;;3.42;100.00;93011.53;5069900;28;20044;-77
2023/11/20 00:22:55;;;;;;;12.35;5.78;;;;;;;3.47;100.00;93008.47;5074067;28;20045;-77
2023/11/20 00:25:22;;;;;;;9.15;5.55;;;;;;;3.50;100.00;93004.81;5074347;28;20047;-77
2023/11/20 00:27:49;;;;;;;9.68;5.05;;;;;;;3.50;100.00;93018.31;5069278;28;20044;-77
2023/11/20 00:30:15;;;;;;;8.25;4.70;;;;;;;3.53;100.00;93012.09;5071050;28;20090;-77
2023/11/20 00:32:42;;;;;;;7.65;4.03;;;;;;;3.47;100.00;93008.47;5072772;28;20052;-77
2023/11/20 00:35:10;;;;;;;7.20;3.47;;;;;;;3.43;100.00;93032.66;5069395;28;20505;-77
2023/11/20 00:37:37;;;;;;;7.47;4.63;;;;;;;3.49;100.00;93026.91;5069779;28;20505;-77
2023/11/20 00:40:11;;;;;;;9.73;5.63;;;;;;;3.57;100.00;93043.81;5069984;28;20048;-77
2023/11/20 00:42:37;;;;;;;17.48;10.82;;;;;;;3.58;100.00;93041.13;5083215;28;20834;-76
2023/11/20 00:45:05;;;;;;;12.40;7.93;;;;;;;3.64;100.00;93043.91;5071641;28;20884;-76
2023/11/20 00:47:32;;;;;;;12.80;7.72;;;;;;;3.66;100.00;93052.16;5070517;28;20526;-76
2023/11/20 00:49:59;;;;;;;17.20;8.13;;;;;;;3.71;100.00;93060.84;5075462;28;20063;-76
2023/11/20 00:52:26;;;;;;;10.65;5.68;;;;;;;3.76;100.00;93070.50;5073156;28;20824;-77
2023/11/20 00:54:53;;;;;;;9.27;5.18;;;;;;;3.76;100.00;93060.34;5075514;28;20052;-77
2023/11/20 00:57:21;;;;;;;7.68;4.03;;;;;;;3.79;100.00;93062.53;5079888;28;20055;-76
2023/11/20 00:59:49;;;;;;;6.30;3.90;;;;;;;3.83;99.99;93045.19;5070955;28;20049;-76
2023/11/20 01:02:16;;;;;;;6.28;3.45;;;;;;;3.81;100.00;93055.56;5069794;28;20593;-76
2023/11/20 01:04:43;;;;;;;4.97;3.03;;;;;;;3.83;99.18;93047.72;5079239;28;20048;-76
2023/11/20 01:07:10;;;;;;;6.55;3.65;;;;;;;3.72;98.97;93028.63;5069759;28;20589;-76
2023/11/20 01:09:36;;;;;;;12.10;4.10;;;;;;;3.85;99.76;93038.22;5068179;28;20501;-78
2023/11/20 01:12:04;;;;;;;8.32;3.40;;;;;;;3.93;99.91;93042.44;5068834;28;20055;-76
2023/11/20 01:14:32;;;;;;;8.48;4.30;;;;;;;3.93;99.32;93029.72;5067964;28;20051;-76
2023/11/20 01:16:59;;;;;;;6.68;3.40;;;;;;;3.94;99.00;93047.31;5068509;28;20421;-76
2023/11/20 01:19:26;;;;;;;6.38;3.80;;;;;;;3.99;98.53;93054.44;5075416;28;20048;-77
2023/11/20 01:21:52;;;;;;;12.35;7.18;;;;;;;3.82;98.33;93036.00;5070279;28;20421;-77
2023/11/20 01:24:19;;;;;;;9.48;5.28;;;;;;;4.01;99.65;93048.22;5073356;28;20418;-76
2023/11/20 01:26:46;;;;;;;8.07;4.90;;;;;;;3.94;100.00;93014.28;5068415;28;20048;-76
2023/11/20 01:29:13;;;;;;;12.57;5.95;;;;;;;4.04;100.00;93028.50;5071472;28;20048;-76
2023/11/20 01:31:41;;;;;;;12.60;6.93;;;;;;;3.94;100.00;93006.66;5081872;28;20417;-76
2023/11/20 01:34:08;;;;;;;10.38;5.57;;;;;;;4.01;100.00;93022.00;5081282;28;20064;-75
2023/11/20 01:36:35;;;;;;;7.65;5.15;;;;;;;3.95;99.36;93022.69;5067901;28;20525;-75
2023/11/20 01:39:02;;;;;;;10.20;5.07;;;;;;;3.93;99.61;93022.88;5068128;28;20055;-75
2023/11/20 01:41:29;;;;;;;11.85;6.65;;;;;;;3.85;99.88;93020.41;5071592;28;20094;-75
2023/11/20 01:43:56;;;;;;;9.90;5.38;;;;;;;3.83;100.00;93028.22;5067787;28;20517;-75
2023/11/20 01:46:25;;;;;;;10.40;5.82;;;;;;;3.77;99.66;93018.75;5069293;28;20051;-75
2023/11/20 01:48:54;;;;;;;8.32;5.38;;;;;;;3.68;100.00;93020.56;5067823;28;20051;-76
2023/11/20 01:51:21;;;;;;;13.68;9.02;;;;;;;3.46;100.00;93028.03;5067853;28;20394;-75
2023/11/20 01:53:48;;;;;;;28.85;16.58;;;;;;;3.23;100.00;93032.31;5067961;28;20490;-76
2023/11/20 01:56:16;;;;;;;18.98;10.30;;;;;;;2.92;100.00;93034.69;5069967;28;20055;-76
2023/11/20 01:58:44;;;;;;;18.73;10.07;;;;;;;2.89;100.00;93035.06;5067828;28;20055;-76
2023/11/20 02:01:11;;;;;;;21.75;11.48;;;;;;;2.84;100.00;93046.63;5067353;28;20059;-76
2023/11/20 02:03:38;;;;;;;28.00;15.93;;;;;;;2.73;100.00;93053.66;5066425;28;20049;-75
2023/11/20 02:06:07;;;;;;;20.48;11.23;;;;;;;2.74;100.00;93054.47;5069652;28;20592;-75
2023/11/20 02:08:34;;;;;;;26.27;14.00;;;;;;;2.75;100.00;93043.34;5068358;28;20051;-75
2023/11/20 02:11:01;;;;;;;23.38;12.70;;;;;;;2.75;100.00;93031.47;5067671;28;20045;-75
2023/11/20 02:13:28;;;;;;;24.05;13.98;;;;;;;2.59;100.00;93009.50;5071886;28;20075;-75
2023/11/20 02:15:56;;;;;;;24.20;13.65;;;;;;;2.74;100.00;93022.25;5067537;28;20048;-74
2023/11/20 02:18:30;;;;;;;19.45;11.93;;;;;;;2.73;100.00;92999.63;5072245;28;20063;-74
2023/11/20 02:20:57;;;;;;;16.92;10.07;;;;;;;2.79;100.00;93009.09;5069194;28;20053;-74
2023/11/20 02:23:26;;;;;;;15.65;9.80;;;;;;;2.75;100.00;93012.91;5069242;28;21023;-74
2023/11/20 02:26:13;;;;;;;18.25;10.23;;;;;;;2.77;100.00;93028.75;5067179;28;20048;-74
2023/11/20 02:28:41;;;;;;;16.95;10.48;;;;;;;2.68;100.00;93022.94;5072275;28;20063;-74
2023/11/20 02:31:09;;;;;;;17.05;9.65;;;;;;;2.67;100.00;93024.69;5069795;28;20048;-74
2023/11/20 02:33:36;;;;;;;17.48;10.02;;;;;;;2.64;100.00;93026.78;5066861;28;20056;-74
2023/11/20 02:36:04;;;;;;;14.38;9.35;;;;;;;2.57;100.00;93013.16;5069349;28;20510;-74
2023/11/20 02:38:31;;;;;;;29.58;16.23;;;;;;;2.59;100.00;93022.16;5067026;28;20056;-74
2023/11/20 02:40:59;;;;;;;18.38;11.95;;;;;;;2.54;100.00;93030.28;5067010;28;20074;-75
2023/11/20 02:43:26;;;;;;;21.58;13.65;;;;;;;2.41;100.00;93035.09;5067533;28;20056;-74
2023/11/20 02:45:53;;;;;;;22.00;13.57;;;;;;;2.15;100.00;93028.50;5066961;28;20059;-75
2023/11/20 02:48:23;;;;;;;19.38;12.55;;;;;;;2.20;100.00;93038.94;5067417;28;20056;-74
2023/11/20 02:50:49;;;;;;;20.08;12.98;;;;;;;2.19;100.00;93039.09;5067396;28;20102;-75
2023/11/20 02:53:16;;;;;;;17.98;11.68;;;;;;;2.14;100.00;93037.06;5071297;28;20044;-74
2023/11/20 02:55:44;;;;;;;19.15;12.02;;;;;;;2.10;100.00;93034.06;5067095;28;20429;-75
2023/11/20 02:58:11;;;;;;;19.55;13.43;;;;;;;2.13;100.00;93038.03;5067029;28;20064;-76
2023/11/20 03:00:38;;;;;;;20.55;13.68;;;;;;;2.17;100.00;93048.63;5067715;28;20052;-75
2023/11/20 03:03:06;;;;;;;21.65;13.27;;;;;;;2.14;100.00;93035.31;5068451;28;20061;-75
2023/11/20 03:05:34;;;;;;;19.98;13.43;;;;;;;2.15;100.00;93033.56;5067039;28;20090;-74
2023/11/20 03:08:01;;;;;;;20.48;13.07;;;;;;;2.03;100.00;93055.16;5067720;28;20056;-74
2023/11/20 03:10:28;;;;;;;19.30;12.88;;;;;;;1.79;100.00;93056.72;5066689;28;20048;-74
2023/11/20 03:12:54;;;;;;;25.48;14.90;;;;;;;1.72;100.00;93046.47;5067037;28;20059;-74
2023/11/20 03:15:21;;;;;;;20.10;13.30;;;;;;;1.79;100.00;93027.16;5067202;28;20045;-75
2023/11/20 03:17:49;;;;;;;17.02;11.95;;;;;;;1.81;100.00;93030.28;5070583;28;20052;-75
2023/11/20 03:20:16;;;;;;;14.52;10.95;;;;;;;1.79;100.00;93028.88;5081647;28;20131;-76
2023/11/20 03:22:44;;;;;;;16.73;11.85;;;;;;;1.76;100.00;93006.41;5085922;28;20056;-75
2023/11/20 03:25:11;;;;;;;18.00;10.88;;;;;;;1.82;100.00;93001.50;5070625;28;20055;-75
2023/11/20 03:27:38;;;;;;;19.25;11.68;;;;;;;1.85;100.00;93006.25;5066958;28;20114;-75
2023/11/20 03:30:06;;;;;;;17.48;11.23;;;;;;;1.92;100.00;92998.00;5068130;28;20053;-75
2023/11/20 03:32:34;;;;;;;16.35;9.85;;;;;;;1.91;100.00;92989.63;5070399;28;20044;-75
2023/11/20 03:35:00;;;;;;;13.60;8.70;;;;;;;1.80;100.00;92985.66;5070601;28;20057;-76
2023/11/20 03:37:27;;;;;;;15.38;9.48;;;;;;;1.87;100.00;92986.59;5070332;28;20509;-75
2023/11/20 03:39:55;;;;;;;11.05;7.38;;;;;;;1.85;100.00;92997.88;5073929;28;20052;-76
2023/11/20 03:42:23;;;;;;;19.20;11.40;;;;;;;1.81;100.00;92994.06;5071977;28;20051;-76
2023/11/20 03:44:50;;;;;;;16.70;9.75;;;;;;;1.69;100.00;92989.34;5070216;28;20101;-75
2023/11/20 03:47:17;;;;;;;20.65;13.77;;;;;;;1.05;100.00;93000.88;5071484;28;20044;-75
2023/11/20 03:49:44;;;;;;;23.40;13.65;;;;;;;1.02;100.00;92980.94;5072767;28;20047;-75
2023/11/20 03:52:10;;;;;;;15.23;10.57;;;;;;;1.05;100.00;92984.91;5069231;28;20878;-75
2023/11/20 03:54:37;;;;;;;18.73;11.57;;;;;;;1.08;100.00;92977.03;5071717;28;20052;-74
2023/11/20 03:57:06;;;;;;;17.35;10.88;;;;;;;1.04;100.00;92968.16;5070292;28;20115;-75
2023/11/20 03:59:33;;;;;;;13.82;9.32;;;;;;;1.14;100.00;92966.25;5069537;28;20053;-75
2023/11/20 04:02:00;;;;;;;10.25;7.65;;;;;;;0.75;100.00;92909.47;5069927;28;20059;-75
2023/11/20 04:04:27;;;;;;;12.73;7.97;;;;;;;1.08;100.00;92943.34;5070248;28;20052;-75
2023/11/20 04:06:54;;;;;;;12.75;7.00;;;;;;;1.23;100.00;92946.81;5069301;28;20053;-75
2023/11/20 04:09:21;;;;;;;14.43;9.02;;;;;;;1.32;100.00;92953.47;5071530;28;20051;-75
2023/11/20 04:11:47;;;;;;;14.52;9.25;;;;;;;1.36;100.00;92955.66;5071643;28;20131;-75
2023/11/20 04:14:16;;;;;;;23.67;12.43;;;;;;;1.36;100.00;92956.47;5069371;28;20045;-75
2023/11/20 04:16:43;;;;;;;21.13;12.85;;;;;;;1.40;100.00;92952.66;5068735;28;20049;-75
2023/11/20 04:19:13;;;;;;;20.77;11.90;;;;;;;1.33;100.00;92944.91;5083795;28;20040;-76
2023/11/20 04:21:41;;;;;;;22.52;12.77;;;;;;;0.98;100.00;92903.03;5074063;28;20170;-76
2023/11/20 04:24:09;;;;;;;18.25;11.15;;;;;;;1.22;100.00;92947.78;5070302;28;20052;-76
2023/11/20 04:26:36;;;;;;;21.80;11.45;;;;;;;1.29;100.00;92956.31;5080954;28;20059;-76
2023/11/20 04:29:02;;;;;;;19.15;12.48;;;;;;;1.25;100.00;92964.38;5073379;28;20414;-76
2023/11/20 04:31:31;;;;;;;19.90;11.90;;;;;;;1.25;100.00;92955.03;5068991;28;20045;-77
2023/11/20 04:33:58;;;;;;;31.67;25.17;;;;;;;1.04;100.00;92953.78;5068048;28;20090;-77
2023/11/20 04:36:25;;;;;;;25.58;18.33;;;;;;;0.96;100.00;92950.47;5068897;28;20044;-76
2023/11/20 04:38:52;;;;;;;26.95;15.55;;;;;;;0.98;100.00;92943.50;5073057;28;20053;-76
2023/11/20 04:41:19;;;;;;;22.10;15.52;;;;;;;1.05;100.00;92957.88;5069041;28;20049;-77
2023/11/20 04:43:46;;;;;;;26.13;15.57;;;;;;;0.82;100.00;92974.63;5075020;28;20494;-76
2023/11/20 04:46:13;;;;;;;18.33;12.65;;;;;;;0.72;100.00;92969.69;5073400;28;20048;-76
2023/11/20 04:48:41;;;;;;;22.25;13.10;;;;;;;0.77;100.00;92960.69;5069206;28;20044;-77
2023/11/20 04:51:08;;;;;;;17.67;11.00;;;;;;;0.90;100.00;92967.03;5072261;28;20044;-77
2023/11/20 04:53:35;;;;;;;16.95;9.98;;;;;;;0.85;100.00;92961.66;5068595;28;20562;-77
2023/11/20 04:56:07;;;;;;;15.52;9.13;;;;;;;0.93;100.00;92969.25;5071285;28;20059;-77
2023/11/20 04:58:33;;;;;;;16.83;9.35;;;;;;;1.08;100.00;92976.22;5068964;28;20048;-76
2023/11/20 05:01:02;;;;;;;21.65;13.23;;;;;;;0.93;100.00;92979.38;5072759;28;20516;-76
2023/11/20 05:03:29;;;;;;;10.40;6.82;;;;;;;0.87;100.00;92982.50;5068203;28;20056;-77
2023/11/20 05:05:58;;;;;;;19.35;9.52;;;;;;;0.89;100.00;92988.22;5068961;28;20053;-76
2023/11/20 05:08:24;;;;;;;18.98;10.10;;;;;;;0.77;100.00;92975.88;5068850;28;20049;-77
2023/11/20 05:10:51;;;;;;;20.92;11.82;;;;;;;1.00;100.00;92998.03;5068628;28;20056;-76
2023/11/20 05:13:18;;;;;;;27.25;14.48;;;;;;;1.03;100.00;92995.19;5070383;28;20052;-76
2023/11/20 05:15:46;;;;;;;24.13;14.35;;;;;;;1.11;100.00;92994.41;5068745;28;20062;-76
2023/11/20 05:18:13;;;;;;;24.58;13.75;;;;;;;1.19;100.00;92998.69;5071611;28;20657;-76
2023/11/20 05:20:39;;;;;;;125.18;57.85;;;;;;;1.25;100.00;93008.16;5070414;28;20544;-75
2023/11/20 05:23:09;;;;;;;90.60;43.25;;;;;;;1.29;100.00;93003.59;5086010;28;20062;-76
2023/11/20 05:25:36;;;;;;;74.80;37.22;;;;;;;1.19;100.00;92991.09;5072267;28;20157;-76
2023/11/20 05:28:03;;;;;;;65.88;35.33;;;;;;;1.29;100.00;92999.31;5077049;28;20060;-76
2023/11/20 05:30:29;;;;;;;69.97;37.92;;;;;;;1.37;100.00;93001.06;5072080;28;20494;-77
2023/11/20 05:32:57;;;;;;;65.38;35.72;;;;;;;1.37;100.00;92990.94;5068012;28;20053;-76
2023/11/20 05:35:24;;;;;;;69.30;39.08;;;;;;;1.53;100.00;92996.94;5067928;28;20052;-76
2023/11/20 05:37:51;;;;;;;71.18;38.83;;;;;;;1.63;100.00;92999.31;5072463;28;20040;-76
2023/11/20 05:40:19;;;;;;;54.17;32.38;;;;;;;1.70;100.00;93008.63;5068000;28;20052;-77
2023/11/20 05:42:46;;;;;;;51.53;28.02;;;;;;;1.68;100.00;93013.09;5068334;28;20056;-75
2023/11/20 05:45:13;;;;;;;36.45;20.35;;;;;;;1.73;100.00;93015.91;5068195;28;20115;-76
2023/11/20 05:47:40;;;;;;;77.45;32.33;;;;;;;1.67;100.00;92998.03;5074266;28;20506;-75
2023/11/20 05:50:07;;;;;;;150.05;74.63;;;;;;;1.71;100.00;93009.44;5077603;28;20044;-76
2023/11/20 05:52:34;;;;;;;89.45;43.88;;;;;;;1.75;100.00;93013.22;5070890;28;20056;-77
2023/11/20 05:55:02;;;;;;;114.35;56.30;;;;;;;1.74;100.00;93014.16;5076229;28;20143;-77
2023/11/20 05:57:31;;;;;;;74.05;39.22;;;;;;;1.67;100.00;93019.06;5067657;28;20040;-77
2023/11/20 05:59:58;;;;;;;62.85;34.40;;;;;;;1.69;100.00;93029.84;5075051;28;20048;-77
2023/11/20 06:02:25;;;;;;;63.88;34.65;;;;;;;1.80;100.00;93027.94;5071304;28;20040;-77
2023/11/20 06:04:52;;;;;;;69.85;36.60;;;;;;;1.86;100.00;93032.38;5067288;28;20080;-77
2023/11/20 06:07:19;;;;;;;72.80;37.95;;;;;;;1.88;100.00;93035.53;5067836;28;20045;-77
2023/11/20 06:09:46;;;;;;;53.72;31.10;;;;;;;1.91;100.00;93031.88;5068124;28;20072;-77
2023/11/20 06:12:12;;;;;;;65.50;35.67;;;;;;;2.04;100.00;93032.16;5075221;28;20524;-77
2023/11/20 06:14:41;;;;;;;56.70;32.45;;;;;;;2.14;100.00;93029.47;5079599;28;20059;-77
2023/11/20 06:17:08;;;;;;;76.60;38.78;;;;;;;2.24;100.00;93029.28;5068480;28;20126;-77
2023/11/20 06:19:35;;;;;;;46.45;24.95;;;;;;;2.23;100.00;93037.84;5072993;28;20048;-77
2023/11/20 06:22:02;;;;;;;41.97;23.63;;;;;;;2.29;100.00;93033.84;5068484;28;20933;-77
2023/11/20 06:24:28;;;;;;;41.85;23.13;;;;;;;2.23;100.00;93022.63;5071272;28;20048;-76
2023/11/20 06:26:55;;;;;;;45.10;25.02;;;;;;;2.28;100.00;93030.53;5068757;28;20048;-76
2023/11/20 06:29:22;;;;;;;44.00;23.02;;;;;;;2.25;100.00;93025.78;5067320;28;20044;-76
2023/11/20 06:31:51;;;;;;;45.10;25.92;;;;;;;2.33;100.00;93033.38;5070342;28;20048;-76
2023/11/20 06:34:17;;;;;;;50.38;28.83;;;;;;;2.45;100.00;93031.25;5070894;28;20444;-76
2023/11/20 06:36:45;;;;;;;45.20;23.73;;;;;;;2.45;100.00;93028.72;5071174;28;20055;-76
2023/11/20 06:39:11;;;;;;;44.33;23.88;;;;;;;2.54;100.00;93032.00;5077162;28;20048;-77
2023/11/20 06:41:39;;;;;;;44.85;27.05;;;;;;;2.61;100.00;93029.63;5078997;28;20048;-76
2023/11/20 06:44:06;;;;;;;45.85;24.58;;;;;;;2.54;100.00;93030.28;5073255;28;20045;-76
2023/11/20 06:46:33;;;;;;;70.55;32.55;;;;;;;2.52;100.00;93034.75;5066672;28;20045;-77
2023/11/20 06:49:01;;;;;;;62.20;33.03;;;;;;;2.48;100.00;93030.16;5066883;28;20052;-76
2023/11/20 06:51:28;;;;;;;58.28;32.60;;;;;;;2.49;100.00;93022.38;5067282;28;20060;-77
2023/11/20 06:53:55;;;;;;;58.05;37.47;;;;;;;2.49;100.00;93027.44;5067279;28;20060;-76
2023/11/20 06:56:21;;;;;;;73.72;41.17;;;;;;;2.47;100.00;93019.22;5068149;28;20493;-76
2023/11/20 06:58:49;;;;;;;78.03;43.50;;;;;;;2.54;100.00;93020.16;5067246;28;20040;-76
2023/11/20 07:01:17;;;;;;;89.95;47.95;;;;;;;2.55;100.00;93026.00;5068348;28;20057;-76
2023/11/20 07:03:44;;;;;;;74.00;40.88;;;;;;;2.55;100.00;93018.41;5067276;28;20063;-76
2023/11/20 07:06:14;;;;;;;67.15;40.25;;;;;;;2.64;100.00;93014.88;5071373;28;20053;-76
2023/11/20 07:08:41;;;;;;;79.10;44.40;;;;;;;2.68;100.00;92992.50;5076650;28;20152;-76
2023/11/20 07:11:08;;;;;;;91.85;53.53;;;;;;;2.74;100.00;92999.44;5078309;28;20057;-76
2023/11/20 07:13:35;;;;;;;102.18;57.92;;;;;;;2.91;100.00;92992.53;5069828;28;20764;-76
2023/11/20 07:16:01;;;;;;;65.57;32.13;;;;;;;3.03;100.00;93010.72;5074649;28;20407;-76
2023/11/20 07:18:28;;;;;;;61.60;34.60;;;;;;;3.03;100.00;93007.38;5073781;28;20380;-76
2023/11/20 07:20:56;;;;;;;65.72;35.50;;;;;;;3.13;100.00;93010.47;5080969;28;20131;-76
2023/11/20 07:23:24;;;;;;;56.95;33.15;;;;;;;3.12;100.00;93001.28;5081066;28;20044;-76
2023/11/20 07:25:53;;;;;;;48.97;27.10;;;;;;;3.21;100.00;93007.09;5078285;28;20050;-76
2023/11/20 07:28:20;;;;;;;47.83;24.35;;;;;;;3.23;100.00;93007.72;5080564;28;20053;-76
2023/11/20 07:30:47;;;;;;;56.80;31.58;;;;;;;3.33;100.00;93000.66;5070996;28;20505;-76
2023/11/20 07:33:15;;;;;;;49.53;27.83;;;;;;;3.40;100.00;93000.78;5074974;28;20044;-76
2023/11/20 07:35:42;;;;;;;43.40;26.27;;;;;;;3.44;100.00;92991.06;5077474;28;20067;-76
2023/11/20 07:38:09;;;;;;;44.08;28.08;;;;;;;3.47;100.00;92988.16;5071605;28;20494;-76
2023/11/20 07:40:37;;;;;;;49.95;27.30;;;;;;;3.56;100.00;92986.38;5073894;28;20055;-76
2023/11/20 07:43:04;;;;;;;54.35;29.52;;;;;;;3.54;100.00;92984.00;5073804;28;20136;-76
2023/11/20 07:45:31;;;;;;;46.83;28.88;;;;;;;3.62;100.00;92980.59;5071563;28;20060;-76
2023/11/20 07:47:58;;;;;;;58.05;31.65;;;;;;;3.58;100.00;92964.13;5072909;28;20049;-76
2023/11/20 07:50:25;;;;;;;67.72;34.63;;;;;;;3.69;100.00;92970.53;5077342;28;20090;-76
2023/11/20 07:52:51;;;;;;;54.25;30.73;;;;;;;3.56;100.00;92935.59;5073589;28;20040;-76
2023/11/20 07:55:18;;;;;;;54.97;30.95;;;;;;;3.93;100.00;92973.81;5076234;28;20055;-76
2023/11/20 07:57:46;;;;;;;49.00;25.88;;;;;;;4.00;100.00;92972.16;5075568;28;20040;-76
2023/11/20 08:00:15;;;;;;;45.95;24.40;;;;;;;4.02;100.00;92967.66;5078795;28;20125;-76
2023/11/20 08:02:41;;;;;;;52.90;26.58;;;;;;;4.12;100.00;92968.19;5076007;28;20058;-76
2023/11/20 08:05:09;;;;;;;47.10;25.63;;;;;;;4.10;100.00;92939.63;5077071;28;20409;-76
2023/11/20 08:07:36;;;;;;;50.20;27.20;;;;;;;4.35;100.00;92967.31;5076686;28;20391;-77
2023/11/20 08:10:03;;;;;;;50.53;29.13;;;;;;;4.38;100.00;92971.25;5078293;28;20048;-77
2023/11/20 08:12:30;;;;;;;48.03;28.13;;;;;;;4.58;100.00;92966.38;5077397;28;20040;-76
2023/11/20 08:14:58;;;;;;;46.88;27.77;;;;;;;4.85;100.00;92956.50;5074485;28;20055;-76
2023/11/20 08:17:26;;;;;;;53.72;28.42;;;;;;;4.84;100.00;92964.31;5073766;28;20047;-76
2023/11/20 08:19:53;;;;;;;51.90;27.58;;;;;;;5.07;100.00;92954.78;5070865;28;20127;-76
2023/11/20 08:22:20;;;;;;;51.03;25.75;;;;;;;5.26;100.00;92951.78;5071423;28;20055;-76
2023/11/20 08:24:46;;;;;;;48.45;24.85;;;;;;;5.36;100.00;92957.34;5070598;28;20048;-77
2023/11/20 08:27:13;;;;;;;41.78;22.00;;;;;;;5.48;100.00;92955.09;5075879;28;20051;-77
2023/11/20 08:29:40;;;;;;;39.53;18.30;;;;;;;5.59;100.00;92946.16;5073582;28;20043;-77
2023/11/20 08:32:08;;;;;;;37.53;17.77;;;;;;;5.81;100.00;92941.81;5076699;28;20052;-77
2023/11/20 08:34:35;;;;;;;32.30;16.17;;;;;;;5.87;100.00;92938.50;5074295;28;20049;-77
2023/11/20 08:37:02;;;;;;;26.67;15.02;;;;;;;6.08;100.00;92936.09;5072430;28;20067;-77
2023/11/20 08:39:31;;;;;;;30.90;15.43;;;;;;;6.19;99.75;92940.66;5072236;28;20043;-77
2023/11/20 08:41:59;;;;;;;25.23;13.90;;;;;;;6.36;97.45;92946.25;5070268;28;20097;-77
2023/11/20 08:44:26;;;;;;;21.83;13.38;;;;;;;6.47;96.24;92951.78;5069009;28;20041;-77
2023/11/20 08:46:53;;;;;;;23.33;12.95;;;;;;;6.53;95.85;92944.13;5069131;28;20121;-77
2023/11/20 08:49:21;;;;;;;26.60;14.43;;;;;;;6.72;95.80;92941.06;5070186;28;20056;-77
2023/11/20 08:51:48;;;;;;;23.80;12.63;;;;;;;6.73;93.70;92930.66;5075086;28;20048;-77
2023/11/20 08:54:15;;;;;;;28.20;13.15;;;;;;;6.87;93.65;92946.00;5069133;28;20040;-77
2023/11/20 08:56:42;;;;;;;26.70;14.02;;;;;;;6.95;95.53;92940.72;5076251;28;20391;-77
2023/11/20 08:59:09;;;;;;;26.27;13.32;;;;;;;7.16;91.82;92955.09;5085784;28;20089;-77
2023/11/20 09:01:37;;;;;;;36.90;15.18;;;;;;;7.28;93.01;92946.84;5084862;28;20063;-77
2023/11/20 09:04:05;;;;;;;31.10;13.05;;;;;;;7.43;91.09;92939.00;5073304;28;20058;-77
2023/11/20 09:06:33;;;;;;;37.58;15.43;;;;;;;7.59;94.87;92933.47;5076935;28;20137;-77
2023/11/20 09:09:00;;;;;;;42.67;18.33;;;;;;;7.79;94.02;92930.13;5071946;28;20587;-77
2023/11/20 09:11:29;;;;;;;41.67;18.10;;;;;;;8.01;95.32;92928.09;5069065;28;20053;-76
2023/11/20 09:13:55;;;;;;;49.15;20.63;;;;;;;8.12;92.79;92919.03;5069142;28;20574;-76
2023/11/20 09:16:22;;;;;;;45.42;21.80;;;;;;;8.41;92.61;92923.84;5069385;28;20048;-75
2023/11/20 09:18:49;;;;;;;37.20;17.90;;;;;;;8.51;87.93;92926.78;5079228;28;20037;-75
2023/11/20 09:21:16;;;;;;;40.55;18.20;;;;;;;8.65;89.38;92921.59;5071411;28;20056;-76
2023/11/20 09:23:45;;;;;;;27.15;12.55;;;;;;;8.70;87.63;92921.78;5067763;28;20140;-76
2023/11/20 09:26:12;;;;;;;29.35;12.80;;;;;;;8.81;89.26;92917.81;5067583;28;20188;-76
2023/11/20 09:28:40;;;;;;;24.00;11.00;;;;;;;8.82;86.54;92909.13;5067729;28;20053;-76
2023/11/20 09:31:07;;;;;;;20.48;9.63;;;;;;;9.07;86.25;92921.19;5068522;28;20513;-76
2023/11/20 09:33:35;;;;;;;18.52;10.13;;;;;;;9.24;86.90;92916.34;5071829;28;20535;-76
2023/11/20 09:36:03;;;;;;;21.00;10.52;;;;;;;9.13;84.38;92886.28;5073007;28;20052;-75
2023/11/20 09:38:30;;;;;;;20.55;9.60;;;;;;;9.44;85.46;92918.00;5075189;28;20520;-76
2023/11/20 09:40:59;;;;;;;26.75;11.98;;;;;;;9.61;86.29;92916.47;5068426;28;20138;-76
2023/11/20 09:43:29;;;;;;;26.98;11.63;;;;;;;9.63;86.11;92901.63;5070558;28;20071;-76
2023/11/20 09:45:59;;;;;;;22.95;10.02;;;;;;;9.87;85.25;92914.63;5069181;28;20670;-76
2023/11/20 09:48:32;;;;;;;28.42;11.05;;;;;;;9.92;84.25;92903.75;5072232;28;20674;-76
2023/11/20 09:50:59;;;;;;;21.00;8.45;;;;;;;10.07;82.28;92913.66;5069796;28;20105;-76
2023/11/20 09:53:32;;;;;;;19.45;8.27;;;;;;;10.03;81.85;92913.31;5071083;28;20051;-76
2023/11/20 09:56:03;;;;;;;18.58;8.13;;;;;;;10.11;83.30;92909.69;5068774;28;20056;-76
2023/11/20 09:58:31;;;;;;;17.17;8.10;;;;;;;10.12;82.55;92907.88;5068411;28;20048;-76
2023/11/20 10:01:05;;;;;;;10.55;6.28;;;;;;;10.04;84.31;92911.50;5068669;28;20118;-76
2023/11/20 10:03:32;;;;;;;12.90;5.65;;;;;;;10.01;80.80;92914.50;5069392;28;20053;-76
2023/11/20 10:06:01;;;;;;;33.92;9.35;;;;;;;10.04;80.32;92901.25;5068925;28;20093;-76
2023/11/20 10:08:31;;;;;;;23.65;8.80;;;;;;;10.13;83.18;92901.75;5068709;28;20052;-76
2023/11/20 10:11:02;;;;;;;26.45;7.95;;;;;;;10.23;82.49;92901.25;5068762;28;20044;-76
2023/11/20 10:13:30;;;;;;;14.63;5.25;;;;;;;10.23;80.05;92893.56;5072713;28;20052;-76
2023/11/20 10:15:59;;;;;;;10.77;6.35;;;;;;;10.47;82.14;92896.28;5068427;28;20976;-76
2023/11/20 10:18:26;;;;;;;17.55;6.68;;;;;;;10.67;81.26;92890.88;5071208;28;20056;-76
2023/11/20 10:20:53;;;;;;;13.18;5.30;;;;;;;10.54;79.31;92887.50;5066881;28;20056;-76
2023/11/20 10:23:22;;;;;;;12.32;5.50;;;;;;;10.56;79.77;92897.56;5067532;28;20053;-76
2023/11/20 10:25:50;;;;;;;12.55;4.95;;;;;;;10.49;79.63;92910.47;5067481;28;20121;-76
2023/11/20 10:28:21;;;;;;;10.68;5.22;;;;;;;10.57;80.82;92886.28;5075704;28;20502;-76
2023/11/20 10:30:49;;;;;;;16.42;5.57;;;;;;;10.62;79.32;92888.19;5070608;28;20060;-76
2023/11/20 10:33:17;;;;;;;12.07;5.55;;;;;;;10.45;77.65;92900.84;5076113;28;20510;-76
2023/11/20 10:35:44;;;;;;;16.25;5.70;;;;;;;10.61;79.49;92902.03;5070598;28;21059;-76
2023/11/20 10:38:12;;;;;;;15.45;7.57;;;;;;;10.53;77.13;92905.66;5068378;28;20044;-76
2023/11/20 10:40:44;;;;;;;18.63;7.80;;;;;;;10.46;78.66;92895.47;5077184;28;20079;-76
2023/11/20 10:43:11;;;;;;;16.58;7.13;;;;;;;10.59;81.15;92878.34;5076861;28;20083;-76
2023/11/20 10:45:39;;;;;;;29.52;7.95;;;;;;;10.47;76.80;92899.63;5074693;28;20059;-76
2023/11/20 10:48:08;;;;;;;12.85;5.18;;;;;;;10.32;77.92;92902.53;5075676;28;20052;-76
2023/11/20 10:50:36;;;;;;;22.00;5.93;;;;;;;10.46;78.02;92899.84;5083020;28;20059;-76
2023/11/20 10:53:06;;;;;;;9.07;4.28;;;;;;;10.50;77.50;92903.53;5072763;28;20048;-76
2023/11/20 10:55:42;;;;;;;17.73;5.80;;;;;;;10.66;76.90;92897.03;5073589;28;20143;-76
2023/11/20 10:58:10;;;;;;;19.83;5.93;;;;;;;10.72;78.92;92897.91;5071363;28;20066;-76
2023/11/20 11:00:40;;;;;;;24.02;6.05;;;;;;;10.78;78.36;92890.13;5072751;28;20044;-76
2023/11/20 11:03:10;;;;;;;22.65;7.82;;;;;;;10.86;79.32;92895.97;5071580;28;20502;-76
2023/11/20 11:05:40;;;;;;;28.60;7.40;;;;;;;11.00;77.45;92899.13;5072525;28;20103;-76
2023/11/20 11:08:09;;;;;;;19.02;6.35;;;;;;;10.78;75.98;92846.47;5072330;28;20048;-76
2023/11/20 11:10:40;;;;;;;21.55;6.07;;;;;;;11.31;76.79;92892.97;5072746;28;20095;-76
2023/11/20 11:13:08;;;;;;;19.92;6.22;;;;;;;11.45;74.82;92890.16;5070563;28;20105;-75
2023/11/20 11:15:36;;;;;;;17.63;5.18;;;;;;;11.71;76.41;92885.59;5072208;28;20052;-76
2023/11/20 11:18:05;;;;;;;13.35;3.50;;;;;;;11.87;77.64;92881.53;5074921;28;20070;-76
2023/11/20 11:20:44;;;;;;;5.32;2.70;;;;;;;11.80;69.23;92902.25;5080377;28;20042;-76
2023/11/20 11:23:14;;;;;;;3.72;1.75;;;;;;;11.83;67.34;92891.50;5076673;28;20040;-76